sensor_id;sensor_type;location;lat;lon;timestamp;pressure;altitude;pressure_sealevel;temperature
43292;BMP280;28754;47.700;7.924;2023-02-02T00:00:40;92215.06;;;2.71
43292;BMP280;28754;47.700;7.924;2023-02-02T00:03:27;92227.31;;;2.73
43292;BMP280;28754;47.700;7.924;2023-02-02T00:06:14;92246.59;;;2.74
43292;BMP280;28754;47.700;7.924;2023-02-02T00:09:02;92220.31;;;2.75
43292;BMP280;28754;47.700;7.924;2023-02-02T00:11:49;92222.09;;;2.75
43292;BMP280;28754;47.700;7.924;2023-02-02T00:14:36;92229.50;;;2.76
43292;BMP280;28754;47.700;7.924;2023-02-02T00:17:23;92218.59;;;2.76
43292;BMP280;28754;47.700;7.924;2023-02-02T00:20:10;92214.69;;;2.73
43292;BMP280;28754;47.700;7.924;2023-02-02T00:22:56;92214.31;;;2.76
43292;BMP280;28754;47.700;7.924;2023-02-02T00:25:43;92209.84;;;2.78
43292;BMP280;28754;47.700;7.924;2023-02-02T00:28:30;92235.31;;;2.77
43292;BMP280;28754;47.700;7.924;2023-02-02T00:31:18;92222.84;;;2.75
43292;BMP280;28754;47.700;7.924;2023-02-02T00:34:04;92192.72;;;2.74
43292;BMP280;28754;47.700;7.924;2023-02-02T00:36:51;92227.31;;;2.73
43292;BMP280;28754;47.700;7.924;2023-02-02T00:39:38;92228.72;;;2.76
43292;BMP280;28754;47.700;7.924;2023-02-02T00:42:25;92221.31;;;2.74
43292;BMP280;28754;47.700;7.924;2023-02-02T00:45:15;92227.13;;;2.75
43292;BMP280;28754;47.700;7.924;2023-02-02T00:48:02;92233.56;;;2.77
43292;BMP280;28754;47.700;7.924;2023-02-02T00:50:48;92233.38;;;2.79
43292;BMP280;28754;47.700;7.924;2023-02-02T00:53:35;92218.59;;;2.76
43292;BMP280;28754;47.700;7.924;2023-02-02T00:56:22;92225.97;;;2.77
43292;BMP280;28754;47.700;7.924;2023-02-02T00:59:08;92225.03;;;2.78
43292;BMP280;28754;47.700;7.924;2023-02-02T01:01:55;92201.47;;;2.78
43292;BMP280;28754;47.700;7.924;2023-02-02T01:04:42;92230.25;;;2.77
43292;BMP280;28754;47.700;7.924;2023-02-02T01:07:28;92229.50;;;2.76
43292;BMP280;28754;47.700;7.924;2023-02-02T01:10:17;92228.72;;;2.76
43292;BMP280;28754;47.700;7.924;2023-02-02T01:13:04;92259.59;;;2.72
43292;BMP280;28754;47.700;7.924;2023-02-02T01:15:56;92234.53;;;2.70
43292;BMP280;28754;47.700;7.924;2023-02-02T01:18:43;92226.53;;;2.67
43292;BMP280;28754;47.700;7.924;2023-02-02T01:21:30;92235.69;;;2.68
43292;BMP280;28754;47.700;7.924;2023-02-02T01:24:17;92233.34;;;2.66
43292;BMP280;28754;47.700;7.924;2023-02-02T01:27:04;92250.44;;;2.64
43292;BMP280;28754;47.700;7.924;2023-02-02T01:29:50;92251.63;;;2.62
43292;BMP280;28754;47.700;7.924;2023-02-02T01:32:37;92256.69;;;2.62
43292;BMP280;28754;47.700;7.924;2023-02-02T01:35:24;92254.50;;;2.59
43292;BMP280;28754;47.700;7.924;2023-02-02T01:38:10;92245.56;;;2.56
43292;BMP280;28754;47.700;7.924;2023-02-02T01:40:57;92250.44;;;2.58
43292;BMP280;28754;47.700;7.924;2023-02-02T01:46:36;92259.78;;;2.57
43292;BMP280;28754;47.700;7.924;2023-02-02T01:49:22;92252.97;;;2.58
43292;BMP280;28754;47.700;7.924;2023-02-02T01:52:10;92258.00;;;2.58
43292;BMP280;28754;47.700;7.924;2023-02-02T01:55:04;92253.94;;;2.57
43292;BMP280;28754;47.700;7.924;2023-02-02T01:57:59;92259.94;;;2.56
43292;BMP280;28754;47.700;7.924;2023-02-02T02:00:47;92261.53;;;2.57
43292;BMP280;28754;47.700;7.924;2023-02-02T02:03:36;92261.31;;;2.58
43292;BMP280;28754;47.700;7.924;2023-02-02T02:06:24;92271.25;;;2.60
43292;BMP280;28754;47.700;7.924;2023-02-02T02:09:12;92259.19;;;2.62
43292;BMP280;28754;47.700;7.924;2023-02-02T02:11:58;92251.63;;;2.62
43292;BMP280;28754;47.700;7.924;2023-02-02T02:14:48;92249.44;;;2.59
43292;BMP280;28754;47.700;7.924;2023-02-02T02:25:29;92267.56;;;2.62
43292;BMP280;28754;47.700;7.924;2023-02-02T02:36:36;92247.16;;;2.64
43292;BMP280;28754;47.700;7.924;2023-02-02T02:39:16;92252.00;;;2.65
43292;BMP280;28754;47.700;7.924;2023-02-02T02:42:20;92235.88;;;2.66
43292;BMP280;28754;47.700;7.924;2023-02-02T02:45:11;92236.66;;;2.67
43292;BMP280;28754;47.700;7.924;2023-02-02T02:47:59;92239.78;;;2.69
43292;BMP280;28754;47.700;7.924;2023-02-02T02:50:47;92243.88;;;2.70
43292;BMP280;28754;47.700;7.924;2023-02-02T02:53:35;92231.41;;;2.68
43292;BMP280;28754;47.700;7.924;2023-02-02T03:03:32;92234.13;;;2.67
43292;BMP280;28754;47.700;7.924;2023-02-02T03:07:20;92243.25;;;2.61
43292;BMP280;28754;47.700;7.924;2023-02-02T03:10:12;92241.50;;;2.62
43292;BMP280;28754;47.700;7.924;2023-02-02T03:13:00;92228.69;;;2.63
43292;BMP280;28754;47.700;7.924;2023-02-02T03:15:52;92244.81;;;2.62
43292;BMP280;28754;47.700;7.924;2023-02-02T03:18:38;92252.56;;;2.61
43292;BMP280;28754;47.700;7.924;2023-02-02T03:21:25;92250.84;;;2.61
43292;BMP280;28754;47.700;7.924;2023-02-02T03:24:12;92242.84;;;2.58
43292;BMP280;28754;47.700;7.924;2023-02-02T03:27:00;92228.69;;;2.63
43292;BMP280;28754;47.700;7.924;2023-02-02T03:29:47;92233.75;;;2.63
43292;BMP280;28754;47.700;7.924;2023-02-02T03:32:33;92242.69;;;2.66
43292;BMP280;28754;47.700;7.924;2023-02-02T03:35:20;92240.75;;;2.68
43292;BMP280;28754;47.700;7.924;2023-02-02T03:38:07;92232.56;;;2.66
43292;BMP280;28754;47.700;7.924;2023-02-02T03:40:54;92259.59;;;2.72
43292;BMP280;28754;47.700;7.924;2023-02-02T03:43:41;92263.72;;;2.72
43292;BMP280;28754;47.700;7.924;2023-02-02T03:46:27;92265.47;;;2.72
43292;BMP280;28754;47.700;7.924;2023-02-02T03:49:14;92260.19;;;2.73
43292;BMP280;28754;47.700;7.924;2023-02-02T03:52:01;92250.09;;;2.73
43292;BMP280;28754;47.700;7.924;2023-02-02T03:54:50;92262.53;;;2.75
43292;BMP280;28754;47.700;7.924;2023-02-02T03:57:36;92291.53;;;2.72
43292;BMP280;28754;47.700;7.924;2023-02-02T04:00:23;92276.75;;;2.70
43292;BMP280;28754;47.700;7.924;2023-02-02T04:03:10;92267.59;;;2.69
43292;BMP280;28754;47.700;7.924;2023-02-02T04:05:57;92243.28;;;2.68
43292;BMP280;28754;47.700;7.924;2023-02-02T04:08:43;92239.78;;;2.69
43292;BMP280;28754;47.700;7.924;2023-02-02T04:11:30;92263.50;;;2.68
43292;BMP280;28754;47.700;7.924;2023-02-02T04:14:17;92273.63;;;2.68
43292;BMP280;28754;47.700;7.924;2023-02-02T04:17:04;92281.81;;;2.70
43292;BMP280;28754;47.700;7.924;2023-02-02T04:19:51;92279.06;;;2.71
43292;BMP280;28754;47.700;7.924;2023-02-02T04:22:43;92268.78;;;2.72
43292;BMP280;28754;47.700;7.924;2023-02-02T04:25:30;92272.25;;;2.72
43292;BMP280;28754;47.700;7.924;2023-02-02T04:28:17;92290.53;;;2.73
43292;BMP280;28754;47.700;7.924;2023-02-02T04:31:04;92266.25;;;2.72
43292;BMP280;28754;47.700;7.924;2023-02-02T04:33:50;92246.97;;;2.72
43292;BMP280;28754;47.700;7.924;2023-02-02T04:36:37;92266.84;;;2.74
43292;BMP280;28754;47.700;7.924;2023-02-02T04:39:24;92248.34;;;2.74
43292;BMP280;28754;47.700;7.924;2023-02-02T04:42:11;92250.47;;;2.71
43292;BMP280;28754;47.700;7.924;2023-02-02T04:44:58;92241.69;;;2.67
43292;BMP280;28754;47.700;7.924;2023-02-02T04:47:44;92252.59;;;2.67
43292;BMP280;28754;47.700;7.924;2023-02-02T04:50:31;92244.66;;;2.70
43292;BMP280;28754;47.700;7.924;2023-02-02T04:53:18;92262.94;;;2.72
43292;BMP280;28754;47.700;7.924;2023-02-02T04:56:11;92266.06;;;2.74
43292;BMP280;28754;47.700;7.924;2023-02-02T04:58:58;92264.31;;;2.74
43292;BMP280;28754;47.700;7.924;2023-02-02T05:01:47;92267.78;;;2.73
43292;BMP280;28754;47.700;7.924;2023-02-02T05:04:36;92267.19;;;2.72
43292;BMP280;28754;47.700;7.924;2023-02-02T05:07:23;92270.69;;;2.71
43292;BMP280;28754;47.700;7.924;2023-02-02T05:10:10;92263.13;;;2.71
43292;BMP280;28754;47.700;7.924;2023-02-02T05:12:57;92266.81;;;2.68
43292;BMP280;28754;47.700;7.924;2023-02-02T05:15:44;92263.50;;;2.68
43292;BMP280;28754;47.700;7.924;2023-02-02T05:18:30;92251.25;;;2.71
43292;BMP280;28754;47.700;7.924;2023-02-02T05:21:18;92283.75;;;2.74
43292;BMP280;28754;47.700;7.924;2023-02-02T05:24:05;92294.47;;;2.76
43292;BMP280;28754;47.700;7.924;2023-02-02T05:26:52;92250.50;;;2.77
43292;BMP280;28754;47.700;7.924;2023-02-02T05:29:45;92296.00;;;2.77
43292;BMP280;28754;47.700;7.924;2023-02-02T05:32:32;92267.59;;;2.75
43292;BMP280;28754;47.700;7.924;2023-02-02T05:35:19;92273.44;;;2.75
43292;BMP280;28754;47.700;7.924;2023-02-02T05:38:05;92249.50;;;2.78
43292;BMP280;28754;47.700;7.924;2023-02-02T05:40:52;92264.50;;;2.79
43292;BMP280;28754;47.700;7.924;2023-02-02T05:43:39;92260.22;;;2.80
43292;BMP280;28754;47.700;7.924;2023-02-02T05:46:26;92272.88;;;2.80
43292;BMP280;28754;47.700;7.924;2023-02-02T05:49:13;92255.97;;;2.80
43292;BMP280;28754;47.700;7.924;2023-02-02T05:52:00;92250.09;;;2.80
43292;BMP280;28754;47.700;7.924;2023-02-02T05:54:46;92274.03;;;2.77
43292;BMP280;28754;47.700;7.924;2023-02-02T05:57:33;92278.91;;;2.79
43292;BMP280;28754;47.700;7.924;2023-02-02T06:00:20;92277.31;;;2.78
43292;BMP280;28754;47.700;7.924;2023-02-02T06:03:07;92276.56;;;2.77
43292;BMP280;28754;47.700;7.924;2023-02-02T06:05:54;92286.31;;;2.80
43292;BMP280;28754;47.700;7.924;2023-02-02T06:08:41;92263.72;;;2.79
43292;BMP280;28754;47.700;7.924;2023-02-02T06:11:27;92287.09;;;2.81
43292;BMP280;28754;47.700;7.924;2023-02-02T06:14:14;92294.50;;;2.82
43292;BMP280;28754;47.700;7.924;2023-02-02T06:17:01;92297.03;;;2.82
43292;BMP280;28754;47.700;7.924;2023-02-02T06:19:47;92297.19;;;2.81
43292;BMP280;28754;47.700;7.924;2023-02-02T06:22:34;92294.09;;;2.79
43292;BMP280;28754;47.700;7.924;2023-02-02T06:25:21;92297.56;;;2.78
43292;BMP280;28754;47.700;7.924;2023-02-02T06:28:07;92304.38;;;2.77
43292;BMP280;28754;47.700;7.924;2023-02-02T06:30:54;92291.72;;;2.77
43292;BMP280;28754;47.700;7.924;2023-02-02T06:33:41;92297.56;;;2.78
43292;BMP280;28754;47.700;7.924;2023-02-02T06:36:28;92302.81;;;2.76
43292;BMP280;28754;47.700;7.924;2023-02-02T06:39:14;92303.78;;;2.75
43292;BMP280;28754;47.700;7.924;2023-02-02T06:42:01;92295.03;;;2.78
43292;BMP280;28754;47.700;7.924;2023-02-02T06:44:48;92295.84;;;2.78
43292;BMP280;28754;47.700;7.924;2023-02-02T06:47:34;92308.66;;;2.77
43292;BMP280;28754;47.700;7.924;2023-02-02T06:50:21;92299.31;;;2.77
43292;BMP280;28754;47.700;7.924;2023-02-02T06:53:08;92304.38;;;2.77
43292;BMP280;28754;47.700;7.924;2023-02-02T06:56:03;92309.06;;;2.80
43292;BMP280;28754;47.700;7.924;2023-02-02T06:58:49;92316.66;;;2.80
43292;BMP280;28754;47.700;7.924;2023-02-02T07:01:36;92309.25;;;2.79
43292;BMP280;28754;47.700;7.924;2023-02-02T07:04:23;92311.97;;;2.77
43292;BMP280;28754;47.700;7.924;2023-02-02T07:07:09;92312.72;;;2.78
43292;BMP280;28754;47.700;7.924;2023-02-02T07:09:56;92311.59;;;2.80
43292;BMP280;28754;47.700;7.924;2023-02-02T07:12:43;92317.81;;;2.84
43292;BMP280;28754;47.700;7.924;2023-02-02T07:15:29;92316.69;;;2.87
43292;BMP280;28754;47.700;7.924;2023-02-02T07:18:16;92329.13;;;2.88
43292;BMP280;28754;47.700;7.924;2023-02-02T07:21:03;92329.13;;;2.88
43292;BMP280;28754;47.700;7.924;2023-02-02T07:23:50;92326.41;;;2.90
43292;BMP280;28754;47.700;7.924;2023-02-02T07:26:37;92317.84;;;2.91
43292;BMP280;28754;47.700;7.924;2023-02-02T07:29:24;92332.25;;;2.90
43292;BMP280;28754;47.700;7.924;2023-02-02T07:32:11;92329.72;;;2.90
43292;BMP280;28754;47.700;7.924;2023-02-02T07:34:58;92331.88;;;2.93
43292;BMP280;28754;47.700;7.924;2023-02-02T07:37:51;92336.94;;;2.93
43292;BMP280;28754;47.700;7.924;2023-02-02T07:40:39;92347.66;;;2.95
43292;BMP280;28754;47.700;7.924;2023-02-02T07:43:25;92307.19;;;2.95
43292;BMP280;28754;47.700;7.924;2023-02-02T07:46:12;92332.66;;;2.94
43292;BMP280;28754;47.700;7.924;2023-02-02T07:48:59;92335.00;;;2.95
43292;BMP280;28754;47.700;7.924;2023-02-02T07:51:46;92341.22;;;2.99
43292;BMP280;28754;47.700;7.924;2023-02-02T07:54:34;92360.34;;;3.02
43292;BMP280;28754;47.700;7.924;2023-02-02T07:57:21;92342.81;;;3.00
43292;BMP280;28754;47.700;7.924;2023-02-02T08:00:08;92342.81;;;3.00
43292;BMP280;28754;47.700;7.924;2023-02-02T08:02:58;92300.97;;;2.98
43292;BMP280;28754;47.700;7.924;2023-02-02T08:05:45;92329.56;;;2.98
43292;BMP280;28754;47.700;7.924;2023-02-02T08:08:32;92344.75;;;2.98
43292;BMP280;28754;47.700;7.924;2023-02-02T08:11:21;92352.75;;;3.02
43292;BMP280;28754;47.700;7.924;2023-02-02T08:14:11;92356.81;;;3.03
43292;BMP280;28754;47.700;7.924;2023-02-02T08:16:59;92361.88;;;3.03
43292;BMP280;28754;47.700;7.924;2023-02-02T08:19:46;92361.09;;;3.02
43292;BMP280;28754;47.700;7.924;2023-02-02T08:22:32;92360.34;;;3.02
43292;BMP280;28754;47.700;7.924;2023-02-02T08:25:19;92357.97;;;3.00
43292;BMP280;28754;47.700;7.924;2023-02-02T08:28:06;92359.53;;;3.01
43292;BMP280;28754;47.700;7.924;2023-02-02T08:30:52;92359.16;;;3.04
43292;BMP280;28754;47.700;7.924;2023-02-02T08:33:40;92361.50;;;3.06
43292;BMP280;28754;47.700;7.924;2023-02-02T08:36:29;92354.88;;;3.05
43292;BMP280;28754;47.700;7.924;2023-02-02T08:39:16;92356.44;;;3.06
43292;BMP280;28754;47.700;7.924;2023-02-02T08:42:02;92356.84;;;3.09
43292;BMP280;28754;47.700;7.924;2023-02-02T08:44:49;92358.78;;;3.07
43292;BMP280;28754;47.700;7.924;2023-02-02T08:47:36;92369.69;;;3.07
43292;BMP280;28754;47.700;7.924;2023-02-02T08:50:22;92340.28;;;3.07
43292;BMP280;28754;47.700;7.924;2023-02-02T08:53:09;92387.22;;;3.09
43292;BMP280;28754;47.700;7.924;2023-02-02T08:56:25;92372.81;;;3.09
43292;BMP280;28754;47.700;7.924;2023-02-02T08:59:12;92378.63;;;3.10
43292;BMP280;28754;47.700;7.924;2023-02-02T09:01:58;92402.78;;;3.06
43292;BMP280;28754;47.700;7.924;2023-02-02T09:04:45;92374.34;;;3.04
43292;BMP280;28754;47.700;7.924;2023-02-02T09:07:33;92386.03;;;3.05
43292;BMP280;28754;47.700;7.924;2023-02-02T09:10:20;92347.13;;;3.06
43292;BMP280;28754;47.700;7.924;2023-02-02T09:13:07;92381.72;;;3.06
43292;BMP280;28754;47.700;7.924;2023-02-02T09:15:59;92380.59;;;3.08
43292;BMP280;28754;47.700;7.924;2023-02-02T09:18:46;92408.22;;;3.09
43292;BMP280;28754;47.700;7.924;2023-02-02T09:21:33;92368.13;;;3.07
43292;BMP280;28754;47.700;7.924;2023-02-02T09:24:23;92380.19;;;3.05
43292;BMP280;28754;47.700;7.924;2023-02-02T09:27:09;92389.13;;;3.01
43292;BMP280;28754;47.700;7.924;2023-02-02T09:29:56;92385.03;;;3.00
43292;BMP280;28754;47.700;7.924;2023-02-02T09:32:43;92400.59;;;3.03
43292;BMP280;28754;47.700;7.924;2023-02-02T09:35:30;92407.03;;;3.06
43292;BMP280;28754;47.700;7.924;2023-02-02T09:38:17;92397.72;;;3.06
43292;BMP280;28754;47.700;7.924;2023-02-02T09:47:51;92408.22;;;3.09
43292;BMP280;28754;47.700;7.924;2023-02-02T09:50:49;92426.94;;;3.15
43292;BMP280;28754;47.700;7.924;2023-02-02T09:53:49;92420.31;;;3.14
43292;BMP280;28754;47.700;7.924;2023-02-02T09:56:42;92429.25;;;3.10
43292;BMP280;28754;47.700;7.924;2023-02-02T09:59:37;92438.41;;;3.11
43292;BMP280;28754;47.700;7.924;2023-02-02T10:02:36;92441.91;;;3.10
43292;BMP280;28754;47.700;7.924;2023-02-02T10:05:38;92430.81;;;3.11
43292;BMP280;28754;47.700;7.924;2023-02-02T10:08:45;92472.50;;;3.15
43292;BMP280;28754;47.700;7.924;2023-02-02T10:11:44;92453.81;;;3.16
43292;BMP280;28754;47.700;7.924;2023-02-02T10:14:42;92448.75;;;3.16
43292;BMP280;28754;47.700;7.924;2023-02-02T10:18:03;92454.41;;;3.18
43292;BMP280;28754;47.700;7.924;2023-02-02T10:21:12;92462.59;;;3.20
43292;BMP280;28754;47.700;7.924;2023-02-02T10:24:03;92463.19;;;3.22
43292;BMP280;28754;47.700;7.924;2023-02-02T10:26:57;92459.66;;;3.23
43292;BMP280;28754;47.700;7.924;2023-02-02T10:30:00;92456.19;;;3.24
43292;BMP280;28754;47.700;7.924;2023-02-02T10:33:04;92455.81;;;3.27
43292;BMP280;28754;47.700;7.924;2023-02-02T10:36:27;92451.72;;;3.26
43292;BMP280;28754;47.700;7.924;2023-02-02T10:46:00;92445.31;;;3.30
43292;BMP280;28754;47.700;7.924;2023-02-02T10:48:49;92471.00;;;3.33
43292;BMP280;28754;47.700;7.924;2023-02-02T10:51:38;92464.00;;;3.35
43292;BMP280;28754;47.700;7.924;2023-02-02T10:58:00;92473.56;;;3.40
43292;BMP280;28754;47.700;7.924;2023-02-02T11:00:55;92483.09;;;3.38
43292;BMP280;28754;47.700;7.924;2023-02-02T11:03:43;92459.72;;;3.36
43292;BMP280;28754;47.700;7.924;2023-02-02T11:06:30;92450.41;;;3.36
43292;BMP280;28754;47.700;7.924;2023-02-02T11:09:40;92441.44;;;3.34
43292;BMP280;28754;47.700;7.924;2023-02-02T11:12:40;92445.53;;;3.35
43292;BMP280;28754;47.700;7.924;2023-02-02T11:15:29;92431.88;;;3.36
43292;BMP280;28754;47.700;7.924;2023-02-02T11:18:30;92428.56;;;3.35
43292;BMP280;28754;47.700;7.924;2023-02-02T11:21:27;92433.47;;;3.37
43292;BMP280;28754;47.700;7.924;2023-02-02T11:24:45;92442.00;;;3.36
43292;BMP280;28754;47.700;7.924;2023-02-02T11:27:38;92441.06;;;3.37
43292;BMP280;28754;47.700;7.924;2023-02-02T11:30:37;92465.59;;;3.36
43292;BMP280;28754;47.700;7.924;2023-02-02T11:33:34;92455.47;;;3.36
43292;BMP280;28754;47.700;7.924;2023-02-02T11:36:21;92449.59;;;3.36
43292;BMP280;28754;47.700;7.924;2023-02-02T11:39:19;92443.41;;;3.38
43292;BMP280;28754;47.700;7.924;2023-02-02T11:42:13;92434.81;;;3.39
43292;BMP280;28754;47.700;7.924;2023-02-02T11:45:01;92431.50;;;3.39
43292;BMP280;28754;47.700;7.924;2023-02-02T11:47:51;92423.91;;;3.39
43292;BMP280;28754;47.700;7.924;2023-02-02T11:50:37;92417.50;;;3.42
43292;BMP280;28754;47.700;7.924;2023-02-02T11:53:47;92427.06;;;3.47
43292;BMP280;28754;47.700;7.924;2023-02-02T11:56:36;92428.63;;;3.48
43292;BMP280;28754;47.700;7.924;2023-02-02T11:59:42;92414.78;;;3.50
43292;BMP280;28754;47.700;7.924;2023-02-02T12:02:31;92417.31;;;3.50
43292;BMP280;28754;47.700;7.924;2023-02-02T12:08:09;92407.78;;;3.52
43292;BMP280;28754;47.700;7.924;2023-02-02T12:11:02;92411.50;;;3.56
43292;BMP280;28754;47.700;7.924;2023-02-02T12:14:28;92401.19;;;3.58
43292;BMP280;28754;47.700;7.924;2023-02-02T12:17:41;92405.09;;;3.60
43292;BMP280;28754;47.700;7.924;2023-02-02T12:26:34;92416.38;;;3.58
43292;BMP280;28754;47.700;7.924;2023-02-02T12:33:08;92428.44;;;3.56
43292;BMP280;28754;47.700;7.924;2023-02-02T12:36:24;92421.81;;;3.55
43292;BMP280;28754;47.700;7.924;2023-02-02T12:39:30;92423.22;;;3.57
43292;BMP280;28754;47.700;7.924;2023-02-02T12:49:26;92417.94;;;3.59
43292;BMP280;28754;47.700;7.924;2023-02-02T12:55:42;92418.16;;;3.64
43292;BMP280;28754;47.700;7.924;2023-02-02T13:01:54;92422.81;;;3.60
43292;BMP280;28754;47.700;7.924;2023-02-02T13:08:08;92418.13;;;3.57
43292;BMP280;28754;47.700;7.924;2023-02-02T13:11:08;92414.03;;;3.56
43292;BMP280;28754;47.700;7.924;2023-02-02T13:14:34;92428.06;;;3.59
43292;BMP280;28754;47.700;7.924;2023-02-02T13:17:45;92419.28;;;3.61
43292;BMP280;28754;47.700;7.924;2023-02-02T13:20:46;92417.16;;;3.65
43292;BMP280;28754;47.700;7.924;2023-02-02T13:23:45;92423.59;;;3.67
43292;BMP280;28754;47.700;7.924;2023-02-02T13:26:41;92412.69;;;3.67
43292;BMP280;28754;47.700;7.924;2023-02-02T13:29:50;92419.13;;;3.69
43292;BMP280;28754;47.700;7.924;2023-02-02T13:32:42;92416.78;;;3.68
43292;BMP280;28754;47.700;7.924;2023-02-02T13:35:44;92403.94;;;3.69
43292;BMP280;28754;47.700;7.924;2023-02-02T13:38:35;92421.66;;;3.69
43292;BMP280;28754;47.700;7.924;2023-02-02T13:41:27;92425.78;;;3.70
43292;BMP280;28754;47.700;7.924;2023-02-02T13:44:34;92419.13;;;3.69
43292;BMP280;28754;47.700;7.924;2023-02-02T13:47:41;92411.72;;;3.68
43292;BMP280;28754;47.700;7.924;2023-02-02T13:50:39;92411.16;;;3.66
43292;BMP280;28754;47.700;7.924;2023-02-02T13:57:32;92419.31;;;3.68
43292;BMP280;28754;47.700;7.924;2023-02-02T14:00:32;92429.84;;;3.65
43292;BMP280;28754;47.700;7.924;2023-02-02T14:03:39;92425.94;;;3.62
43292;BMP280;28754;47.700;7.924;2023-02-02T14:06:27;92418.34;;;3.62
43292;BMP280;28754;47.700;7.924;2023-02-02T14:09:17;92435.50;;;3.67
43292;BMP280;28754;47.700;7.924;2023-02-02T14:12:09;92433.56;;;3.69
43292;BMP280;28754;47.700;7.924;2023-02-02T14:14:56;92446.81;;;3.71
43292;BMP280;28754;47.700;7.924;2023-02-02T14:20:47;92426.16;;;3.74
43292;BMP280;28754;47.700;7.924;2023-02-02T14:23:50;92426.38;;;3.78
43292;BMP280;28754;47.700;7.924;2023-02-02T14:26:50;92433.75;;;3.80
43292;BMP280;28754;47.700;7.924;2023-02-02T14:32:40;92448.75;;;3.75
43292;BMP280;28754;47.700;7.924;2023-02-02T14:48:07;92463.97;;;3.75
43292;BMP280;28754;47.700;7.924;2023-02-02T14:50:57;92469.81;;;3.75
43292;BMP280;28754;47.700;7.924;2023-02-02T14:53:56;92483.03;;;3.71
43292;BMP280;28754;47.700;7.924;2023-02-02T14:56:52;92472.31;;;3.69
43292;BMP280;28754;47.700;7.924;2023-02-02T14:59:45;92470.78;;;3.68
43292;BMP280;28754;47.700;7.924;2023-02-02T15:02:36;92505.81;;;3.65
43292;BMP280;28754;47.700;7.924;2023-02-02T15:08:26;92496.47;;;3.72
43292;BMP280;28754;47.700;7.924;2023-02-02T15:11:12;92511.50;;;3.73
43292;BMP280;28754;47.700;7.924;2023-02-02T15:14:17;92482.44;;;3.69
43292;BMP280;28754;47.700;7.924;2023-02-02T15:26:31;92503.13;;;3.73
43292;BMP280;28754;47.700;7.924;2023-02-02T15:29:41;92508.97;;;3.73
43292;BMP280;28754;47.700;7.924;2023-02-02T15:32:30;92508.38;;;3.71
43292;BMP280;28754;47.700;7.924;2023-02-02T15:35:26;92517.72;;;3.71
43292;BMP280;28754;47.700;7.924;2023-02-02T15:38:17;92517.34;;;3.74
43292;BMP280;28754;47.700;7.924;2023-02-02T15:41:19;92514.03;;;3.73
43292;BMP280;28754;47.700;7.924;2023-02-02T15:44:26;92511.69;;;3.78
43292;BMP280;28754;47.700;7.924;2023-02-02T15:47:25;92518.94;;;3.81
43292;BMP280;28754;47.700;7.924;2023-02-02T15:50:19;92519.13;;;3.79
43292;BMP280;28754;47.700;7.924;2023-02-02T15:53:19;92518.72;;;3.82
43292;BMP280;28754;47.700;7.924;2023-02-02T15:56:29;92506.63;;;3.78
43292;BMP280;28754;47.700;7.924;2023-02-02T15:59:21;92513.88;;;3.81
43292;BMP280;28754;47.700;7.924;2023-02-02T16:04:58;92507.81;;;3.82
43292;BMP280;28754;47.700;7.924;2023-02-02T16:07:45;92551.50;;;3.84
43292;BMP280;28754;47.700;7.924;2023-02-02T16:10:34;92540.38;;;3.85
43292;BMP280;28754;47.700;7.924;2023-02-02T16:13:25;92559.09;;;3.84
43292;BMP280;28754;47.700;7.924;2023-02-02T16:19:22;92560.44;;;3.80
43292;BMP280;28754;47.700;7.924;2023-02-02T16:22:19;92555.56;;;3.78
43292;BMP280;28754;47.700;7.924;2023-02-02T16:25:14;92547.00;;;3.79
43292;BMP280;28754;47.700;7.924;2023-02-02T16:28:01;92557.13;;;3.79
43292;BMP280;28754;47.700;7.924;2023-02-02T16:30:49;92568.03;;;3.80
43292;BMP280;28754;47.700;7.924;2023-02-02T16:33:42;92563.94;;;3.79
43292;BMP280;28754;47.700;7.924;2023-02-02T16:36:29;92570.78;;;3.78
43292;BMP280;28754;47.700;7.924;2023-02-02T16:39:22;92562.38;;;3.78
43292;BMP280;28754;47.700;7.924;2023-02-02T16:42:29;92577.56;;;3.78
43292;BMP280;28754;47.700;7.924;2023-02-02T16:45:41;92594.53;;;3.77
43292;BMP280;28754;47.700;7.924;2023-02-02T16:48:41;92578.38;;;3.78
43292;BMP280;28754;47.700;7.924;2023-02-02T16:51:31;92591.22;;;3.77
43292;BMP280;28754;47.700;7.924;2023-02-02T16:54:19;92610.72;;;3.76
43292;BMP280;28754;47.700;7.924;2023-02-02T16:57:14;92609.72;;;3.77
43292;BMP280;28754;47.700;7.924;2023-02-02T17:00:05;92610.72;;;3.76
43292;BMP280;28754;47.700;7.924;2023-02-02T17:03:00;92603.72;;;3.78
43292;BMP280;28754;47.700;7.924;2023-02-02T17:05:52;92601.19;;;3.78
43292;BMP280;28754;47.700;7.924;2023-02-02T17:08:42;92594.34;;;3.79
43292;BMP280;28754;47.700;7.924;2023-02-02T17:11:28;92599.59;;;3.77
43292;BMP280;28754;47.700;7.924;2023-02-02T17:14:27;92610.50;;;3.78
43292;BMP280;28754;47.700;7.924;2023-02-02T17:17:14;92612.28;;;3.77
43292;BMP280;28754;47.700;7.924;2023-02-02T17:20:00;92611.50;;;3.77
43292;BMP280;28754;47.700;7.924;2023-02-02T17:23:02;92618.91;;;3.78
43292;BMP280;28754;47.700;7.924;2023-02-02T17:25:50;92621.63;;;3.77
43292;BMP280;28754;47.700;7.924;2023-02-02T17:28:40;92630.78;;;3.78
43292;BMP280;28754;47.700;7.924;2023-02-02T17:31:26;92622.41;;;3.77
43292;BMP280;28754;47.700;7.924;2023-02-02T17:34:13;92637.44;;;3.79
43292;BMP280;28754;47.700;7.924;2023-02-02T17:37:00;92630.41;;;3.81
43292;BMP280;28754;47.700;7.924;2023-02-02T17:39:47;92636.66;;;3.78
43292;BMP280;28754;47.700;7.924;2023-02-02T17:42:35;92641.13;;;3.76
43292;BMP280;28754;47.700;7.924;2023-02-02T17:48:14;92653.56;;;3.78
43292;BMP280;28754;47.700;7.924;2023-02-02T17:51:00;92655.50;;;3.76
43292;BMP280;28754;47.700;7.924;2023-02-02T17:53:52;92645.81;;;3.79
43292;BMP280;28754;47.700;7.924;2023-02-02T17:56:43;92636.81;;;3.77
43292;BMP280;28754;47.700;7.924;2023-02-02T17:59:30;92624.94;;;3.77
43292;BMP280;28754;47.700;7.924;2023-02-02T18:02:16;92620.25;;;3.75
43292;BMP280;28754;47.700;7.924;2023-02-02T18:05:04;92638.97;;;3.80
43292;BMP280;28754;47.700;7.924;2023-02-02T18:07:51;92634.88;;;3.79
43292;BMP280;28754;47.700;7.924;2023-02-02T18:10:40;92639.38;;;3.77
43292;BMP280;28754;47.700;7.924;2023-02-02T18:13:27;92639.97;;;3.79
43292;BMP280;28754;47.700;7.924;2023-02-02T18:16:14;92645.81;;;3.79
43292;BMP280;28754;47.700;7.924;2023-02-02T18:19:01;92633.91;;;3.80
43292;BMP280;28754;47.700;7.924;2023-02-02T18:21:48;92643.09;;;3.81
43292;BMP280;28754;47.700;7.924;2023-02-02T18:24:35;92644.25;;;3.78
43292;BMP280;28754;47.700;7.924;2023-02-02T18:27:21;92634.88;;;3.79
43292;BMP280;28754;47.700;7.924;2023-02-02T18:30:09;92624.94;;;3.77
43292;BMP280;28754;47.700;7.924;2023-02-02T18:32:56;92628.44;;;3.76
43292;BMP280;28754;47.700;7.924;2023-02-02T18:35:45;92651.44;;;3.75